Time;durP1;ratioP1;P1;durP2;ratioP2;P2;SDS_P1;SDS_P2;PMS_P1;PMS_P2;Temp;Humidity;BMP_temperature;BMP_pressure;BME280_temperature;BME280_humidity;BME280_pressure;Samples;Min_cycle;Max_cycle;Signal;HPM_P1;HPM_P2
2022/07/25 00:00:14;;;;;;;8.38;5.58;;;;;;;19.50;74.77;99185.17;1735196;82;21001;-46
2022/07/25 00:02:43;;;;;;;10.45;5.62;;;;;;;19.48;74.64;99180.09;1735007;82;20931;-45
2022/07/25 00:05:10;;;;;;;10.75;6.40;;;;;;;19.45;74.60;99179.57;1735261;82;21066;-45
2022/07/25 00:07:39;;;;;;;8.18;6.37;;;;;;;19.42;74.58;99184.48;1735273;82;21511;-45
2022/07/25 00:10:08;;;;;;;7.55;6.17;;;;;;;19.39;74.68;99181.22;1735293;82;21025;-46
2022/07/25 00:12:35;;;;;;;9.75;6.20;;;;;;;19.39;74.63;99179.84;1735250;82;21072;-45
2022/07/25 00:15:03;;;;;;;9.80;6.40;;;;;;;19.35;74.61;99175.63;1740675;81;21033;-46
2022/07/25 00:17:31;;;;;;;7.28;5.75;;;;;;;19.31;74.69;99177.67;1749206;82;21555;-45
2022/07/25 00:20:00;;;;;;;6.83;5.97;;;;;;;19.27;74.80;99178.31;1749106;82;21535;-45
2022/07/25 00:22:27;;;;;;;6.55;5.83;;;;;;;19.19;74.89;99180.43;1749051;82;21029;-45
2022/07/25 00:24:56;;;;;;;7.10;6.40;;;;;;;19.13;75.05;99170.34;1749018;82;20914;-45
2022/07/25 00:27:23;;;;;;;10.08;6.17;;;;;;;19.10;75.15;99174.72;1748972;82;21490;-45
2022/07/25 00:29:52;;;;;;;8.20;5.78;;;;;;;19.12;75.12;99173.71;1749174;82;21601;-45
2022/07/25 00:32:20;;;;;;;6.70;5.45;;;;;;;19.10;74.98;99171.38;1748837;82;23138;-45
2022/07/25 00:34:48;;;;;;;7.55;5.45;;;;;;;19.05;74.86;99177.36;1749021;82;20914;-45
2022/07/25 00:37:15;;;;;;;7.50;5.78;;;;;;;19.01;74.85;99178.02;1748817;82;21579;-45
2022/07/25 00:39:42;;;;;;;5.65;4.80;;;;;;;18.99;74.73;99175.50;1749160;82;21072;-45
2022/07/25 00:42:09;;;;;;;8.85;5.85;;;;;;;18.94;74.70;99174.02;1749049;82;21017;-45
2022/07/25 00:44:36;;;;;;;8.10;5.95;;;;;;;18.91;74.57;99174.87;1749230;82;21622;-45
2022/07/25 00:47:03;;;;;;;5.80;5.20;;;;;;;18.88;74.51;99171.56;1749015;82;20937;-45
2022/07/25 00:49:30;;;;;;;9.30;5.47;;;;;;;18.81;74.36;99181.31;1749170;82;21086;-45
2022/07/25 00:51:58;;;;;;;7.37;5.20;;;;;;;18.76;74.53;99181.02;1749113;82;21610;-46
2022/07/25 00:54:25;;;;;;;6.95;5.25;;;;;;;18.72;74.48;99177.56;1743686;82;21585;-45
2022/07/25 00:56:51;;;;;;;7.50;5.37;;;;;;;18.68;74.49;99180.38;1749437;82;21242;-45
2022/07/25 00:59:18;;;;;;;8.83;5.28;;;;;;;18.64;74.50;99181.78;1749014;82;20997;-45
2022/07/25 01:01:46;;;;;;;7.60;5.17;;;;;;;18.62;74.44;99191.05;1748947;82;21452;-45
2022/07/25 01:04:14;;;;;;;6.62;5.08;;;;;;;18.57;74.46;99185.26;1749048;82;20937;-46
2022/07/25 01:06:43;;;;;;;8.38;5.40;;;;;;;18.52;74.49;99185.11;1749216;82;23230;-45
2022/07/25 01:09:12;;;;;;;5.37;4.65;;;;;;;18.48;74.48;99183.61;1748859;82;21139;-45
2022/07/25 01:11:39;;;;;;;7.03;5.08;;;;;;;18.43;74.63;99181.34;1748957;82;21024;-46
2022/07/25 01:14:06;;;;;;;8.58;4.60;;;;;;;18.38;74.65;99184.55;1749025;82;20964;-45
2022/07/25 01:16:35;;;;;;;7.50;4.78;;;;;;;18.33;74.77;99181.69;1748803;82;22182;-45
2022/07/25 01:19:01;;;;;;;5.72;4.80;;;;;;;18.31;74.92;99184.65;1749192;82;21041;-45
2022/07/25 01:21:29;;;;;;;8.65;5.28;;;;;;;18.28;74.86;99189.61;1748827;82;23151;-45
2022/07/25 01:23:56;;;;;;;6.58;4.72;;;;;;;18.22;74.77;99189.30;1748923;82;20969;-45
2022/07/25 01:26:23;;;;;;;5.92;4.80;;;;;;;18.14;74.78;99194.12;1749049;82;20973;-46
2022/07/25 01:28:50;;;;;;;6.70;4.37;;;;;;;18.12;74.91;99187.48;1749342;82;20929;-45
2022/07/25 01:31:17;;;;;;;6.12;4.55;;;;;;;18.09;74.82;99188.31;1749206;82;21025;-45
2022/07/25 01:33:44;;;;;;;7.05;4.42;;;;;;;18.04;74.81;99186.81;1749362;82;21250;-46
2022/07/25 01:36:12;;;;;;;10.53;4.22;;;;;;;18.01;74.74;99186.88;1749208;82;20985;-45
2022/07/25 01:38:39;;;;;;;7.67;4.75;;;;;;;17.98;74.70;99200.02;1749376;82;21495;-45
2022/07/25 01:41:07;;;;;;;5.97;4.10;;;;;;;17.94;74.69;99196.55;1749122;82;21008;-45
2022/07/25 01:43:35;;;;;;;9.05;3.77;;;;;;;17.88;74.75;99191.34;1749082;82;21024;-45
2022/07/25 01:46:02;;;;;;;7.42;3.92;;;;;;;17.87;74.77;99191.15;1749177;82;21229;-46
2022/07/25 01:48:29;;;;;;;4.45;3.58;;;;;;;17.86;74.71;99193.14;1748957;82;20993;-45
2022/07/25 01:50:56;;;;;;;4.72;3.85;;;;;;;17.87;74.62;99193.30;1749187;82;20972;-45
2022/07/25 01:53:23;;;;;;;6.70;3.67;;;;;;;17.86;74.44;99195.11;1748970;82;21013;-45
2022/07/25 01:55:50;;;;;;;7.97;3.85;;;;;;;17.81;74.44;99187.49;1749064;82;21076;-45
2022/07/25 01:58:17;;;;;;;5.37;3.77;;;;;;;17.79;74.42;99188.52;1749066;82;21245;-45
2022/07/25 02:00:46;;;;;;;7.55;3.60;;;;;;;17.73;74.38;99187.41;1749084;82;21001;-46
2022/07/25 02:03:31;;;;;;;7.22;3.80;;;;;;;17.69;74.40;99190.02;1749137;82;20981;-45
2022/07/25 02:06:01;;;;;;;7.75;3.40;;;;;;;17.63;74.58;99188.32;1749232;82;21065;-45
2022/07/25 02:08:29;;;;;;;5.85;3.77;;;;;;;17.65;74.72;99191.44;1749719;82;21084;-45
2022/07/25 02:10:57;;;;;;;6.28;3.40;;;;;;;17.67;74.61;99188.30;1749290;82;22161;-45
2022/07/25 02:13:26;;;;;;;8.10;3.30;;;;;;;17.69;74.54;99190.80;1748976;82;21526;-46
2022/07/25 02:15:54;;;;;;;6.87;3.98;;;;;;;17.68;74.43;99196.09;1749196;82;21012;-46
2022/07/25 02:18:21;;;;;;;6.30;3.27;;;;;;;17.65;74.45;99191.44;1749069;82;20994;-45
2022/07/25 02:20:48;;;;;;;6.62;3.20;;;;;;;17.63;74.34;99193.80;1748974;82;21088;-45
2022/07/25 02:23:15;;;;;;;5.35;3.55;;;;;;;17.61;74.34;99196.20;1748931;82;21160;-45
2022/07/25 02:25:43;;;;;;;7.92;3.33;;;;;;;17.60;74.38;99195.23;1749231;82;20957;-45
2022/07/25 02:28:10;;;;;;;4.05;3.60;;;;;;;17.58;74.37;99194.23;1749105;82;21633;-45
2022/07/25 02:30:38;;;;;;;7.75;3.42;;;;;;;17.57;74.39;99194.03;1748998;82;21040;-45
2022/07/25 02:33:05;;;;;;;6.10;3.15;;;;;;;17.55;74.35;99190.95;1749265;82;21547;-46
2022/07/25 02:35:34;;;;;;;4.55;3.37;;;;;;;17.49;74.35;99187.09;1748945;82;21574;-45
2022/07/25 02:38:02;;;;;;;5.30;3.40;;;;;;;17.41;74.60;99188.38;1749069;82;20933;-45
2022/07/25 02:40:29;;;;;;;6.28;3.30;;;;;;;17.39;74.69;99186.63;1749031;82;21002;-45
2022/07/25 02:42:58;;;;;;;5.47;3.17;;;;;;;17.36;74.77;99184.13;1748947;82;21586;-45
2022/07/25 02:45:25;;;;;;;4.65;3.05;;;;;;;17.36;74.74;99181.97;1749467;82;21507;-45
2022/07/25 02:47:52;;;;;;;3.67;3.27;;;;;;;17.32;74.84;99183.98;1749395;82;21487;-45
2022/07/25 02:50:19;;;;;;;3.20;2.90;;;;;;;17.34;74.85;99187.07;1749165;82;20973;-46
2022/07/25 02:52:46;;;;;;;5.95;3.25;;;;;;;17.32;74.82;99184.77;1749235;82;20961;-45
2022/07/25 02:55:14;;;;;;;9.23;3.30;;;;;;;17.33;74.82;99185.54;1748868;82;21571;-46
2022/07/25 02:57:41;;;;;;;3.67;3.10;;;;;;;17.31;74.73;99187.31;1749160;82;20973;-45
2022/07/25 03:00:11;;;;;;;5.25;3.37;;;;;;;17.28;74.80;99194.20;1748968;82;21095;-45
2022/07/25 03:02:38;;;;;;;3.92;3.17;;;;;;;17.23;74.94;99186.44;1749103;82;20981;-45
2022/07/25 03:05:10;;;;;;;4.78;3.10;;;;;;;17.19;75.16;99191.14;1748853;82;21009;-45
2022/07/25 03:07:37;;;;;;;5.72;2.98;;;;;;;17.17;75.32;99190.80;1748439;82;20990;-45
2022/07/25 03:10:05;;;;;;;4.90;3.20;;;;;;;17.16;75.32;99194.71;1748814;82;21076;-45
2022/07/25 03:12:32;;;;;;;8.58;2.95;;;;;;;17.16;75.41;99197.45;1749073;82;21092;-45
2022/07/25 03:15:00;;;;;;;5.80;3.30;;;;;;;17.17;75.47;99194.91;1748835;82;21012;-45
2022/07/25 03:17:28;;;;;;;7.00;3.00;;;;;;;17.16;75.48;99194.71;1748706;82;21024;-46
2022/07/25 03:19:55;;;;;;;9.35;3.02;;;;;;;17.14;75.54;99191.59;1748897;82;21571;-46
2022/07/25 03:22:23;;;;;;;3.20;2.62;;;;;;;17.14;75.71;99190.22;1748986;82;21037;-45
2022/07/25 03:24:50;;;;;;;6.62;2.90;;;;;;;17.15;75.78;99193.15;1749469;82;21087;-45
2022/07/25 03:27:17;;;;;;;5.70;3.50;;;;;;;17.14;75.84;99194.33;1749079;82;20926;-45
2022/07/25 03:31:07;;;;;;;4.45;3.10;;;;;;;17.20;75.84;99194.08;1797419;79;22497;-45
2022/07/25 03:33:35;;;;;;;6.53;2.83;;;;;;;17.11;76.13;99189.09;1757244;81;20921;-45
2022/07/25 03:36:03;;;;;;;4.03;2.70;;;;;;;17.10;76.05;99190.85;1757242;81;21246;-45
2022/07/25 03:38:30;;;;;;;5.12;2.70;;;;;;;17.10;76.17;99188.11;1757111;81;21506;-45
2022/07/25 03:40:58;;;;;;;5.17;2.62;;;;;;;17.08;76.22;99190.50;1757083;81;20989;-45
2022/07/25 03:43:26;;;;;;;5.30;3.00;;;;;;;17.07;76.37;99194.41;1757155;81;20961;-45
2022/07/25 03:45:53;;;;;;;5.12;2.60;;;;;;;17.05;76.48;99188.55;1757266;81;20965;-45
2022/07/25 03:48:21;;;;;;;5.72;3.10;;;;;;;17.01;76.74;99189.19;1756991;81;20961;-45
2022/07/25 03:50:49;;;;;;;3.47;3.00;;;;;;;17.02;76.78;99189.38;1757092;81;20949;-45
2022/07/25 03:53:16;;;;;;;3.05;2.58;;;;;;;17.03;77.02;99187.61;1757175;81;20973;-45
2022/07/25 03:55:44;;;;;;;3.30;2.80;;;;;;;17.06;77.10;99192.86;1757282;81;21496;-45
2022/07/25 03:58:11;;;;;;;5.95;2.95;;;;;;;17.10;77.11;99190.85;1757334;81;21542;-45
2022/07/25 04:00:38;;;;;;;4.35;2.60;;;;;;;17.16;77.35;99194.13;1757417;81;21668;-45
2022/07/25 04:03:05;;;;;;;5.10;2.70;;;;;;;17.24;77.15;99192.08;1757308;81;21534;-45
2022/07/25 04:05:33;;;;;;;4.55;3.00;;;;;;;17.28;76.82;99188.73;1757253;81;21076;-45
2022/07/25 04:08:00;;;;;;;3.45;2.92;;;;;;;17.29;76.73;99191.63;1757433;81;21777;-45
2022/07/25 04:10:27;;;;;;;5.90;2.90;;;;;;;17.29;76.58;99197.11;1757282;81;21025;-45
2022/07/25 04:12:55;;;;;;;3.92;2.75;;;;;;;17.29;76.58;99203.37;1757156;81;21237;-45
2022/07/25 04:15:22;;;;;;;5.55;3.12;;;;;;;17.34;76.69;99206.25;1757056;81;20917;-45
2022/07/25 04:17:50;;;;;;;5.15;2.77;;;;;;;17.41;76.63;99207.56;1757408;81;20941;-45
2022/07/25 04:20:18;;;;;;;4.47;3.05;;;;;;;17.44;76.40;99209.47;1757208;81;21813;-45
2022/07/25 04:22:47;;;;;;;3.90;3.05;;;;;;;17.44;76.06;99205.95;1757134;81;21017;-45
2022/07/25 04:25:14;;;;;;;3.45;2.65;;;;;;;17.46;76.45;99207.11;1756941;81;21218;-45
2022/07/25 04:27:41;;;;;;;5.08;2.72;;;;;;;17.52;76.23;99208.22;1757113;81;20938;-45
2022/07/25 04:30:12;;;;;;;4.22;3.00;;;;;;;17.56;76.09;99204.84;1757276;81;21016;-45
2022/07/25 04:32:39;;;;;;;3.65;2.90;;;;;;;17.58;76.14;99206.56;1757688;81;20972;-45
2022/07/25 04:35:08;;;;;;;3.60;3.02;;;;;;;17.65;75.88;99209.27;1757365;81;21028;-45
2022/07/25 04:37:36;;;;;;;6.53;3.40;;;;;;;17.67;75.54;99206.88;1757759;81;21178;-45
2022/07/25 04:40:05;;;;;;;5.75;2.90;;;;;;;17.69;75.78;99209.99;1757306;81;21471;-45
2022/07/25 04:42:31;;;;;;;4.08;3.00;;;;;;;17.77;75.79;99211.45;1756887;81;20957;-45
2022/07/25 04:44:59;;;;;;;5.25;2.60;;;;;;;17.87;75.45;99217.20;1756724;81;20947;-45
2022/07/25 04:47:27;;;;;;;4.25;2.90;;;;;;;17.91;75.12;99211.10;1756906;81;21068;-45
2022/07/25 04:49:54;;;;;;;4.90;2.72;;;;;;;17.96;75.19;99206.53;1756916;81;21241;-45
2022/07/25 04:52:21;;;;;;;5.47;2.85;;;;;;;18.00;74.82;99214.89;1756804;81;20992;-45
2022/07/25 04:54:48;;;;;;;4.05;2.72;;;;;;;18.01;74.81;99209.56;1757251;81;21567;-45
2022/07/25 04:57:15;;;;;;;7.22;2.90;;;;;;;18.05;74.89;99210.91;1757171;81;21009;-45
2022/07/25 04:59:43;;;;;;;3.25;2.47;;;;;;;18.13;74.91;99210.98;1757082;81;20992;-45
2022/07/25 05:02:10;;;;;;;4.47;3.05;;;;;;;18.22;74.84;99209.88;1757035;81;21225;-45
2022/07/25 05:04:37;;;;;;;4.85;3.02;;;;;;;18.32;74.91;99207.57;1756775;81;21510;-45
2022/07/25 05:07:04;;;;;;;3.87;2.85;;;;;;;18.38;74.35;99207.29;1756952;81;20937;-45
2022/07/25 05:09:32;;;;;;;4.83;2.75;;;;;;;18.44;74.41;99204.86;1756704;81;20921;-45
2022/07/25 05:12:00;;;;;;;5.62;2.60;;;;;;;18.46;74.37;99202.45;1756891;81;21001;-45
2022/07/25 05:14:27;;;;;;;3.80;2.92;;;;;;;18.53;74.51;99198.23;1756639;81;21242;-45
2022/07/25 05:16:56;;;;;;;6.78;2.70;;;;;;;18.61;74.37;99203.81;1756740;81;20980;-45
2022/07/25 05:19:23;;;;;;;5.03;2.80;;;;;;;18.71;74.21;99206.98;1756784;81;21047;-45
2022/07/25 05:21:51;;;;;;;3.12;2.50;;;;;;;18.82;74.01;99200.73;1756911;81;20933;-45
2022/07/25 05:24:18;;;;;;;4.50;2.40;;;;;;;18.94;73.94;99203.45;1756779;81;21566;-45
2022/07/25 05:26:46;;;;;;;3.75;2.72;;;;;;;19.03;73.12;99196.22;1756907;81;21796;-45
2022/07/25 05:29:13;;;;;;;3.10;2.55;;;;;;;19.12;72.56;99206.69;1756709;81;20969;-45
2022/07/25 05:31:40;;;;;;;6.20;2.90;;;;;;;19.18;72.42;99206.36;1749363;81;21510;-45
2022/07/25 05:34:08;;;;;;;3.72;2.70;;;;;;;19.27;72.48;99203.83;1748921;82;20937;-45
2022/07/25 05:36:35;;;;;;;8.15;2.40;;;;;;;19.34;71.90;99203.70;1749025;82;21542;-45
2022/07/25 05:39:02;;;;;;;6.45;2.27;;;;;;;19.39;71.69;99202.44;1749056;82;21135;-45
2022/07/25 05:41:29;;;;;;;6.55;2.75;;;;;;;19.48;71.81;99194.44;1748859;82;21538;-45
2022/07/25 05:43:57;;;;;;;2.52;2.30;;;;;;;19.57;71.09;99195.23;1749042;82;20926;-45
2022/07/25 05:46:24;;;;;;;7.42;2.80;;;;;;;19.64;70.76;99197.86;1749064;82;21060;-45
2022/07/25 05:48:51;;;;;;;2.45;2.25;;;;;;;19.69;70.46;99193.23;1749195;82;20965;-45
2022/07/25 05:51:18;;;;;;;4.67;2.47;;;;;;;19.70;70.18;99198.91;1749108;82;21535;-45
2022/07/25 05:53:45;;;;;;;4.30;2.50;;;;;;;19.73;70.37;99199.43;1749172;82;20930;-45
2022/07/25 05:56:13;;;;;;;5.72;2.65;;;;;;;19.77;70.44;99200.13;1749143;82;20993;-45
2022/07/25 05:58:41;;;;;;;4.72;2.55;;;;;;;19.80;70.09;99193.80;1749135;82;21025;-45
2022/07/25 06:01:12;;;;;;;9.13;2.60;;;;;;;19.82;70.35;99199.03;1749082;82;21040;-45
2022/07/25 06:03:39;;;;;;;4.42;2.30;;;;;;;19.86;70.35;99198.35;1739003;82;21086;-45
2022/07/25 06:06:07;;;;;;;4.53;2.12;;;;;;;19.93;70.07;99189.96;1749032;82;20973;-45
2022/07/25 06:08:36;;;;;;;3.92;2.10;;;;;;;20.06;69.85;99198.31;1749264;82;20969;-45
2022/07/25 06:11:04;;;;;;;5.75;2.27;;;;;;;20.13;69.29;99195.42;1748967;82;20937;-45
2022/07/25 06:13:33;;;;;;;5.60;2.45;;;;;;;20.15;69.50;99184.74;1748997;82;21021;-45
2022/07/25 06:16:00;;;;;;;2.60;2.20;;;;;;;20.20;68.96;99188.36;1749219;82;21234;-45
2022/07/25 06:18:31;;;;;;;3.45;2.20;;;;;;;20.24;68.87;99184.92;1748921;82;21480;-45
2022/07/25 06:20:58;;;;;;;2.72;2.30;;;;;;;20.34;69.26;99186.69;1749314;82;21423;-45
2022/07/25 06:23:25;;;;;;;2.92;2.35;;;;;;;20.47;68.57;99179.14;1748849;82;21015;-45
2022/07/25 06:25:52;;;;;;;3.77;2.42;;;;;;;20.50;68.12;99181.02;1748993;82;21080;-45
2022/07/25 06:28:20;;;;;;;4.62;2.40;;;;;;;20.52;68.04;99178.63;1749175;82;21127;-45
2022/07/25 06:30:47;;;;;;;3.58;2.37;;;;;;;20.61;68.18;99174.05;1749099;81;20953;-45
2022/07/25 06:33:15;;;;;;;3.55;2.40;;;;;;;20.69;66.83;99171.28;1749248;82;20934;-45
2022/07/25 06:35:42;;;;;;;4.20;2.62;;;;;;;20.73;66.65;99172.56;1749130;82;21069;-45
2022/07/25 06:38:10;;;;;;;4.85;2.42;;;;;;;20.74;66.79;99173.52;1749315;82;21491;-45
2022/07/25 06:40:37;;;;;;;5.28;2.55;;;;;;;20.75;66.75;99177.05;1748967;82;21132;-45
2022/07/25 06:43:04;;;;;;;3.60;2.40;;;;;;;20.79;66.94;99179.89;1748927;82;20957;-45
2022/07/25 06:45:32;;;;;;;4.50;2.00;;;;;;;20.87;66.24;99180.47;1748909;82;20953;-45
2022/07/25 06:47:59;;;;;;;3.35;2.17;;;;;;;20.98;66.22;99182.35;1748788;82;21387;-45
2022/07/25 06:50:27;;;;;;;5.05;2.62;;;;;;;21.07;65.12;99181.73;1748957;82;21057;-45
2022/07/25 06:52:54;;;;;;;3.85;2.30;;;;;;;21.10;65.10;99178.90;1749075;82;21480;-45
2022/07/25 06:55:20;;;;;;;5.42;2.60;;;;;;;21.16;65.46;99182.68;1748825;82;21025;-45
2022/07/25 06:57:49;;;;;;;3.67;2.27;;;;;;;21.21;64.60;99179.39;1749118;82;21021;-45
2022/07/25 07:00:17;;;;;;;3.30;2.02;;;;;;;21.27;64.56;99180.24;1748977;82;20989;-45
2022/07/25 07:02:55;;;;;;;4.42;2.40;;;;;;;21.38;64.59;99186.25;1749278;82;21017;-45
2022/07/25 07:05:25;;;;;;;4.25;2.50;;;;;;;21.54;64.51;99184.81;1748998;82;21232;-45
2022/07/25 07:07:52;;;;;;;6.35;2.45;;;;;;;21.63;63.49;99180.81;1748630;82;21589;-45
2022/07/25 07:10:20;;;;;;;5.72;2.42;;;;;;;21.67;64.06;99192.52;1748915;82;20957;-46
2022/07/25 07:12:48;;;;;;;5.03;2.30;;;;;;;21.66;63.35;99184.84;1749299;82;21286;-45
2022/07/25 07:15:16;;;;;;;3.10;2.50;;;;;;;21.62;63.51;99183.39;1749321;82;21498;-45
2022/07/25 07:17:44;;;;;;;4.35;2.27;;;;;;;21.61;63.73;99185.37;1749164;82;20931;-45
2022/07/25 07:20:12;;;;;;;3.50;2.00;;;;;;;21.65;62.38;99197.08;1749226;82;21590;-45
2022/07/25 07:22:47;;;;;;;3.60;2.50;;;;;;;21.69;62.18;99190.84;1748776;82;20997;-45
2022/07/25 07:25:18;;;;;;;4.87;2.17;;;;;;;21.75;62.62;99191.69;1748862;82;20946;-45
2022/07/25 07:27:45;;;;;;;3.80;2.33;;;;;;;21.80;62.45;99194.69;1749093;82;20964;-45
2022/07/25 07:30:13;;;;;;;4.12;2.40;;;;;;;21.79;62.19;99193.13;1748203;81;21362;-45
2022/07/25 07:32:41;;;;;;;4.80;2.37;;;;;;;21.79;62.73;99194.51;1734823;82;21020;-45
2022/07/25 07:35:11;;;;;;;4.42;2.33;;;;;;;21.83;62.12;99191.06;1735303;82;20977;-45
2022/07/25 07:37:39;;;;;;;3.15;1.98;;;;;;;21.89;61.48;99187.91;1735009;82;21034;-45
2022/07/25 07:40:08;;;;;;;4.05;2.30;;;;;;;21.95;60.83;99193.08;1734934;82;20975;-45
2022/07/25 07:42:41;;;;;;;6.28;2.50;;;;;;;21.99;60.79;99192.36;1735487;82;21024;-45
2022/07/25 07:45:19;;;;;;;5.25;1.95;;;;;;;22.06;61.42;99192.16;1734423;82;21026;-45
2022/07/25 07:47:47;;;;;;;4.20;2.30;;;;;;;22.16;61.38;99187.53;1735360;82;20965;-45
2022/07/25 07:50:17;;;;;;;4.12;2.12;;;;;;;22.20;60.44;99188.80;1735031;82;21081;-45
2022/07/25 07:52:45;;;;;;;3.08;2.40;;;;;;;22.15;60.30;99196.24;1735249;82;27167;-45
2022/07/25 07:57:58;;;;;;;4.67;2.40;;;;;;;22.21;60.27;99202.77;1735318;82;20974;-45
2022/07/25 08:00:27;;;;;;;4.92;2.37;;;;;;;22.33;60.01;99199.22;1734995;82;20978;-45
2022/07/25 08:02:54;;;;;;;3.90;1.77;;;;;;;22.52;59.70;99192.69;1735289;82;20935;-45
2022/07/25 08:05:24;;;;;;;4.90;2.20;;;;;;;22.75;58.56;99188.83;1735000;82;21073;-45
2022/07/25 08:07:51;;;;;;;5.03;2.10;;;;;;;22.87;57.90;99188.79;1735102;82;21092;-45
2022/07/25 08:10:27;;;;;;;4.55;2.40;;;;;;;22.93;57.53;99195.91;1734964;82;21528;-45
2022/07/25 08:12:56;;;;;;;4.60;2.17;;;;;;;22.99;57.28;99183.68;1735135;82;20973;-46
2022/07/25 08:15:23;;;;;;;2.58;2.15;;;;;;;23.04;56.66;99185.87;1735003;82;21542;-46
2022/07/25 08:17:51;;;;;;;3.52;2.20;;;;;;;23.05;56.17;99183.25;1735272;82;21085;-45
2022/07/25 08:20:21;;;;;;;3.05;2.17;;;;;;;23.12;57.31;99177.48;1735168;82;21152;-45
2022/07/25 08:22:49;;;;;;;2.67;2.00;;;;;;;23.28;57.59;99173.94;1735312;82;20989;-45
2022/07/25 08:25:20;;;;;;;2.47;2.10;;;;;;;23.45;56.31;99173.16;1735118;82;20927;-45
2022/07/25 08:27:48;;;;;;;4.20;2.00;;;;;;;23.57;56.35;99177.87;1735695;82;21010;-46
2022/07/25 08:30:16;;;;;;;3.92;2.02;;;;;;;23.66;55.62;99171.00;1735056;82;21077;-46
2022/07/25 08:32:58;;;;;;;3.27;2.02;;;;;;;23.63;54.76;99177.42;1748831;81;21194;-46
2022/07/25 08:35:26;;;;;;;5.10;2.00;;;;;;;23.53;54.52;99180.60;1749267;82;20937;-46
2022/07/25 08:37:54;;;;;;;5.42;1.90;;;;;;;23.45;54.35;99182.84;1749599;82;21471;-46
2022/07/25 08:40:23;;;;;;;2.20;2.00;;;;;;;23.48;55.58;99190.23;1749280;82;20965;-46
2022/07/25 08:42:50;;;;;;;4.77;2.97;;;;;;;23.55;53.82;99184.45;1749824;82;21057;-45
2022/07/25 08:45:18;;;;;;;3.40;1.92;;;;;;;23.59;53.23;99182.31;1749132;82;21243;-45
2022/07/25 08:47:50;;;;;;;3.52;1.92;;;;;;;23.62;53.56;99182.05;1749172;82;20898;-46
2022/07/25 08:50:19;;;;;;;3.15;1.80;;;;;;;23.60;53.14;99179.72;1749316;82;20937;-46
2022/07/25 08:52:47;;;;;;;5.33;1.98;;;;;;;23.52;53.33;99177.67;1749380;82;20917;-45
2022/07/25 08:55:18;;;;;;;3.83;1.57;;;;;;;23.50;54.57;99173.19;1749052;82;21042;-46
2022/07/25 08:57:49;;;;;;;1.85;1.55;;;;;;;23.57;54.03;99172.33;1749258;82;21757;-45
2022/07/25 09:00:19;;;;;;;3.85;2.35;;;;;;;23.64;53.45;99174.81;1749012;82;21068;-46
2022/07/25 09:02:59;;;;;;;3.55;2.08;;;;;;;23.60;52.23;99179.72;1749461;82;21029;-46
2022/07/25 09:05:29;;;;;;;2.62;1.75;;;;;;;23.59;53.49;99180.94;1748978;82;21001;-46
2022/07/25 09:08:01;;;;;;;6.40;1.90;;;;;;;23.68;53.98;99180.98;1749386;82;20980;-46
2022/07/25 09:10:28;;;;;;;3.33;2.25;;;;;;;23.75;53.02;99187.66;1747868;82;23161;-45
2022/07/25 09:12:58;;;;;;;6.05;2.00;;;;;;;23.74;53.04;99175.03;1749335;82;21496;-46
2022/07/25 09:15:34;;;;;;;5.37;1.90;;;;;;;23.73;53.43;99183.78;1749230;81;21005;-45
2022/07/25 09:18:07;;;;;;;2.35;1.90;;;;;;;23.78;53.04;99184.58;1748427;82;21013;-46
2022/07/25 09:20:47;;;;;;;3.65;1.82;;;;;;;23.90;52.75;99178.20;1749179;82;21029;-45
2022/07/25 09:23:31;;;;;;;3.98;2.08;;;;;;;24.04;52.37;99179.04;1749389;82;21119;-46
2022/07/25 09:26:13;;;;;;;2.80;1.70;;;;;;;24.24;51.79;99170.37;1747190;82;21052;-46
2022/07/25 09:28:48;;;;;;;4.05;2.15;;;;;;;24.42;51.44;99173.20;1749327;82;21533;-46
2022/07/25 09:31:17;;;;;;;2.70;1.80;;;;;;;24.54;49.85;99166.78;1748959;81;20984;-45
2022/07/25 09:33:53;;;;;;;3.15;2.20;;;;;;;24.62;49.92;99166.64;1749311;82;21036;-46
2022/07/25 09:36:22;;;;;;;2.85;2.05;;;;;;;24.78;49.83;99169.75;1748848;82;21296;-45
2022/07/25 09:38:59;;;;;;;2.10;1.90;;;;;;;24.96;50.13;99168.41;1749145;82;20996;-46
2022/07/25 09:41:37;;;;;;;4.83;2.08;;;;;;;25.17;48.11;99157.63;1748938;82;21014;-46
2022/07/25 09:44:16;;;;;;;3.47;1.85;;;;;;;25.32;48.39;99164.84;1748951;82;21531;-46
2022/07/25 09:46:44;;;;;;;2.52;1.80;;;;;;;25.26;45.17;99163.94;1739436;82;21053;-46
2022/07/25 09:49:18;;;;;;;2.85;1.92;;;;;;;25.01;46.78;99162.25;1749158;82;21935;-46
2022/07/25 09:51:41;;;;;;;3.93;2.13;;;;;;;24.90;46.33;99163.92;1747800;82;20988;-46
2022/07/25 09:54:09;;;;;;;2.58;1.90;;;;;;;24.87;46.33;99160.70;1748834;82;21013;-45
2022/07/25 09:56:37;;;;;;;2.70;2.08;;;;;;;24.89;46.48;99162.37;1749186;82;21016;-46
2022/07/25 09:59:05;;;;;;;5.35;2.08;;;;;;;24.92;46.08;99167.80;1749255;82;21060;-46
2022/07/25 10:01:47;;;;;;;2.08;1.87;;;;;;;24.87;45.83;99169.02;1749248;82;20989;-46
2022/07/25 10:04:25;;;;;;;2.60;1.90;;;;;;;24.83;47.09;99165.59;1748793;82;20961;-46
2022/07/25 10:07:08;;;;;;;3.62;2.10;;;;;;;24.75;47.15;99165.72;1749268;82;20980;-46
2022/07/25 10:09:47;;;;;;;3.05;2.08;;;;;;;24.68;48.40;99168.97;1748869;82;20985;-46
2022/07/25 10:12:21;;;;;;;2.52;1.75;;;;;;;24.73;48.41;99164.81;1749275;82;21008;-45
2022/07/25 10:15:08;;;;;;;3.42;1.90;;;;;;;24.91;47.96;99158.54;1748950;82;21238;-46
2022/07/25 10:17:39;;;;;;;2.92;2.05;;;;;;;25.14;47.77;99146.83;1749457;82;21591;-46
2022/07/25 10:20:08;;;;;;;2.67;2.12;;;;;;;25.30;47.50;99142.35;1748942;82;21495;-46
2022/07/25 10:22:44;;;;;;;1.92;1.75;;;;;;;25.40;47.54;99153.59;1749086;82;21021;-46
2022/07/25 10:25:16;;;;;;;3.22;1.80;;;;;;;25.43;47.62;99150.49;1748962;82;21002;-46
2022/07/25 10:27:49;;;;;;;2.40;1.90;;;;;;;25.38;47.10;99156.05;1749048;82;21527;-46
2022/07/25 10:30:23;;;;;;;2.92;1.72;;;;;;;25.31;47.22;99155.00;1749043;82;20894;-46
2022/07/25 10:32:58;;;;;;;1.92;1.50;;;;;;;25.18;46.90;99154.37;1748918;81;21002;-46
2022/07/25 10:35:26;;;;;;;4.20;1.65;;;;;;;25.14;47.82;99151.59;1749016;82;21005;-46
2022/07/25 10:37:55;;;;;;;3.22;1.87;;;;;;;25.18;47.49;99152.98;1749211;82;20930;-46
2022/07/25 10:40:41;;;;;;;2.83;1.70;;;;;;;25.18;46.41;99152.98;1748913;82;21230;-46
2022/07/25 10:43:20;;;;;;;3.62;1.75;;;;;;;25.21;47.26;99153.46;1723285;82;20949;-46
2022/07/25 10:45:56;;;;;;;2.45;1.60;;;;;;;25.45;47.52;99150.20;1749170;82;20934;-46
2022/07/25 10:48:26;;;;;;;1.92;1.72;;;;;;;25.70;45.96;99153.27;1748982;81;20902;-46
2022/07/25 10:51:06;;;;;;;2.52;1.70;;;;;;;25.72;44.29;99144.45;1749377;82;21029;-46
2022/07/25 10:53:46;;;;;;;4.30;1.72;;;;;;;25.63;44.73;99140.31;1749108;82;21127;-46
2022/07/25 10:56:27;;;;;;;2.52;1.77;;;;;;;25.47;46.06;99144.16;1722016;82;21009;-46
2022/07/25 10:58:58;;;;;;;;;;;;;;;25.38;46.72;99140.02;1751754;82;21523;-46
2022/07/25 11:01:31;;;;;;;2.85;1.60;;;;;;;25.52;47.31;99148.47;1748977;82;20146;-46
2022/07/25 11:04:01;;;;;;;5.42;2.00;;;;;;;25.70;46.99;99142.77;1749243;82;21020;-46
2022/07/25 11:06:39;;;;;;;1.55;1.35;;;;;;;26.03;47.08;99139.41;1748899;82;21899;-46
2022/07/25 11:09:25;;;;;;;2.67;1.90;;;;;;;26.41;44.12;99144.96;1749087;82;21008;-46
2022/07/25 11:11:57;;;;;;;4.25;1.60;;;;;;;26.62;43.39;99139.74;1748991;82;20969;-45
2022/07/25 11:14:36;;;;;;;1.82;1.55;;;;;;;26.75;44.28;99141.66;1749156;82;21499;-46
2022/07/25 11:17:18;;;;;;;3.77;1.70;;;;;;;26.83;43.71;99144.22;1748838;82;20917;-46
2022/07/25 11:20:08;;;;;;;3.05;1.85;;;;;;;26.74;43.69;99144.28;1749257;81;21286;-46
2022/07/25 11:22:36;;;;;;;4.60;1.60;;;;;;;26.50;44.34;99135.95;1748646;82;20934;-46
2022/07/25 11:25:11;;;;;;;2.35;1.80;;;;;;;26.21;45.14;99141.33;1748757;82;21475;-45
2022/07/25 11:27:37;;;;;;;4.03;1.95;;;;;;;25.92;46.12;99136.36;1748231;82;21546;-46
2022/07/25 11:30:14;;;;;;;4.05;1.65;;;;;;;25.75;46.54;99142.14;1748990;82;21037;-46
2022/07/25 11:32:53;;;;;;;2.50;1.42;;;;;;;25.65;46.82;99139.23;1741583;81;21558;-46
2022/07/25 11:35:23;;;;;;;2.15;1.67;;;;;;;25.55;46.09;99140.48;1735196;82;20930;-46
2022/07/25 11:37:51;;;;;;;2.10;1.47;;;;;;;25.50;46.41;99128.75;1734488;82;21025;-46
2022/07/25 11:40:19;;;;;;;1.62;1.32;;;;;;;25.65;46.82;99123.34;1735382;82;21042;-46
2022/07/25 11:42:52;;;;;;;1.90;1.60;;;;;;;26.00;45.99;99122.27;1735207;82;21014;-46
2022/07/25 11:45:23;;;;;;;2.95;1.20;;;;;;;26.35;45.24;99118.42;1735560;82;21312;-46
2022/07/25 11:48:09;;;;;;;2.00;1.40;;;;;;;26.72;44.09;99117.58;1734795;82;21525;-46